Time;durP1;ratioP1;P1;durP2;ratioP2;P2;SDS_P1;SDS_P2;PMS_P1;PMS_P2;Temp;Humidity;BMP_temperature;BMP_pressure;BME280_temperature;BME280_humidity;BME280_pressure;Samples;Min_cycle;Max_cycle;Signal;HPM_P1;HPM_P2
2022/11/13 14:56:12;;;;;;;32.20;24.87;;;;;;;15.48;70.38;100780.94;5124712;27;20292;-55
2022/11/13 14:59:48;;;;;;;31.53;26.13;;;;;;;15.44;70.72;100792.03;5076315;28;20727;-55
2022/11/13 15:02:14;;;;;;;36.90;29.17;;;;;;;15.41;70.97;100788.56;5066957;28;20190;-56
2022/11/13 15:04:41;;;;;;;37.78;30.10;;;;;;;15.34;71.44;100784.97;5067366;28;20928;-56
2022/11/13 15:07:28;;;;;;;36.53;28.33;;;;;;;15.28;71.83;100788.31;5067944;28;20303;-56
2022/11/13 15:09:56;;;;;;;34.13;26.43;;;;;;;15.16;72.21;100787.25;5068335;28;20214;-56
2022/11/13 15:12:23;;;;;;;34.83;26.40;;;;;;;15.08;72.41;100791.41;5070550;28;20194;-55
2022/11/13 15:14:52;;;;;;;33.03;28.47;;;;;;;15.04;72.88;100790.47;5061972;28;20911;-55
2022/11/13 15:17:22;;;;;;;31.47;27.27;;;;;;;15.01;73.07;100790.41;5047660;28;20455;-55
2022/11/13 15:19:52;;;;;;;34.73;25.37;;;;;;;14.93;73.90;100788.50;5061799;28;20199;-55
2022/11/13 15:22:19;;;;;;;32.17;27.10;;;;;;;14.79;74.50;100790.84;5063718;28;20188;-55
2022/11/13 15:24:46;;;;;;;36.13;28.20;;;;;;;14.79;74.74;100790.84;5056382;28;20199;-56
2022/11/13 15:27:15;;;;;;;39.13;29.63;;;;;;;14.72;75.22;100784.66;5062610;28;20192;-56
2022/11/13 15:29:43;;;;;;;36.27;27.07;;;;;;;14.69;75.57;100787.19;5063562;28;20230;-56
2022/11/13 15:32:13;;;;;;;36.93;28.33;;;;;;;14.61;75.67;100787.88;5067686;28;20608;-56
2022/11/13 15:34:40;;;;;;;33.70;26.87;;;;;;;14.57;75.93;100786.06;5060609;28;20204;-56
2022/11/13 15:37:17;;;;;;;36.40;27.60;;;;;;;14.51;75.87;100794.56;5047922;28;20272;-56
2022/11/13 15:39:44;;;;;;;35.63;25.73;;;;;;;14.39;76.24;100786.56;5055592;28;20209;-57
2022/11/13 15:42:15;;;;;;;36.10;26.03;;;;;;;14.31;76.56;100782.88;5066916;28;20203;-56
2022/11/13 15:44:42;;;;;;;39.37;27.53;;;;;;;14.30;76.65;100781.16;5067431;28;20561;-56
2022/11/13 15:47:25;;;;;;;36.80;28.00;;;;;;;14.26;76.49;100792.25;5066755;28;20294;-55
2022/11/13 15:49:52;;;;;;;39.13;27.93;;;;;;;14.20;76.79;100785.22;5051158;28;20227;-56
2022/11/13 15:52:20;;;;;;;39.77;29.10;;;;;;;14.17;76.90;100789.47;5065243;28;20226;-56
2022/11/13 15:54:47;;;;;;;41.90;28.93;;;;;;;14.07;77.31;100782.34;5064964;28;20218;-56
2022/11/13 15:57:19;;;;;;;42.37;29.67;;;;;;;14.03;77.33;100786.59;5066415;28;20207;-57
2022/11/13 15:59:46;;;;;;;42.43;29.77;;;;;;;14.00;77.21;100795.97;5065432;28;20520;-56
2022/11/13 16:02:13;;;;;;;38.40;29.00;;;;;;;13.94;77.68;100796.72;5065756;28;20197;-55
2022/11/13 16:04:41;;;;;;;44.27;31.10;;;;;;;13.87;78.00;100793.94;5065567;28;20188;-56
2022/11/13 16:07:13;;;;;;;38.43;28.30;;;;;;;13.80;77.89;100798.09;5065225;28;20188;-56
2022/11/13 16:09:40;;;;;;;40.60;29.27;;;;;;;13.75;77.77;100797.09;5059748;28;20693;-56
2022/11/13 16:12:09;;;;;;;48.73;29.57;;;;;;;13.75;78.13;100796.22;5051429;28;20200;-56
2022/11/13 16:14:36;;;;;;;41.23;28.77;;;;;;;13.66;78.23;100798.56;5043239;28;20270;-56
2022/11/13 16:17:03;;;;;;;40.97;28.47;;;;;;;13.61;78.09;100798.47;5051644;28;20674;-56
2022/11/13 16:19:30;;;;;;;41.78;31.63;;;;;;;13.52;78.57;100793.94;5046042;28;20515;-56
2022/11/13 16:21:58;;;;;;;35.03;26.97;;;;;;;13.55;78.32;100804.34;5033091;28;20346;-56
2022/11/13 16:24:25;;;;;;;31.87;24.57;;;;;;;13.53;77.83;100800.00;5067677;28;20238;-57
2022/11/13 16:26:57;;;;;;;33.47;25.97;;;;;;;13.42;78.40;100794.56;5073567;28;20256;-56
2022/11/13 16:29:24;;;;;;;34.13;25.10;;;;;;;13.45;78.28;100802.38;5073342;28;20219;-57
2022/11/13 16:31:51;;;;;;;30.27;24.10;;;;;;;13.48;78.41;100801.59;5073555;28;20262;-57
2022/11/13 16:34:19;;;;;;;33.43;25.07;;;;;;;13.51;78.31;100805.09;5073550;28;20197;-57
2022/11/13 16:36:46;;;;;;;37.87;27.67;;;;;;;13.46;78.95;100808.41;5068705;28;20280;-57
2022/11/13 16:39:16;;;;;;;37.20;27.07;;;;;;;13.46;79.43;100818.72;5053337;28;20197;-57
2022/11/13 16:41:43;;;;;;;34.67;25.30;;;;;;;13.48;79.41;100815.38;5052667;28;20195;-57
2022/11/13 16:44:10;;;;;;;35.30;26.83;;;;;;;13.51;79.82;100810.25;5060012;28;20249;-56
2022/11/13 16:46:40;;;;;;;36.73;26.93;;;;;;;13.42;80.28;100809.16;5066505;28;20254;-56
2022/11/13 16:49:15;;;;;;;35.23;27.50;;;;;;;13.36;80.30;100809.00;5053960;28;20228;-57
2022/11/13 16:51:42;;;;;;;35.67;27.30;;;;;;;13.41;80.74;100818.63;5053547;28;20265;-56
2022/11/13 16:54:09;;;;;;;38.73;29.07;;;;;;;13.40;80.78;100808.28;5053117;28;20564;-56
2022/11/13 16:56:37;;;;;;;38.83;28.93;;;;;;;13.38;80.90;100812.50;5053332;28;20194;-56
2022/11/13 16:59:04;;;;;;;38.37;28.57;;;;;;;13.29;81.38;100802.84;5067912;28;20233;-56
2022/11/13 17:01:31;;;;;;;36.50;29.10;;;;;;;13.27;81.71;100811.34;5073998;28;20192;-57
2022/11/13 17:03:58;;;;;;;38.30;30.00;;;;;;;13.17;82.22;100814.53;5073128;28;20218;-56
2022/11/13 17:06:27;;;;;;;41.03;29.57;;;;;;;13.18;82.09;100814.56;5073067;28;20188;-56
2022/11/13 17:08:55;;;;;;;37.03;29.07;;;;;;;13.18;82.72;100822.31;5072886;28;20230;-56
2022/11/13 17:11:23;;;;;;;42.47;30.13;;;;;;;13.18;82.92;100822.31;5072857;28;20581;-56
2022/11/13 17:13:52;;;;;;;38.40;29.90;;;;;;;13.19;82.82;100820.59;5051699;28;20206;-56
2022/11/13 17:16:20;;;;;;;43.47;31.83;;;;;;;13.15;83.11;100824.81;5042586;28;20260;-56
2022/11/13 17:18:48;;;;;;;43.70;31.97;;;;;;;12.97;83.18;100806.19;5043343;28;20209;-57
2022/11/13 17:21:15;;;;;;;42.53;30.20;;;;;;;13.10;83.00;100825.53;5040566;28;20723;-56
2022/11/13 17:23:42;;;;;;;47.17;33.38;;;;;;;13.10;83.34;100825.53;5051574;28;20431;-56
2022/11/13 17:26:09;;;;;;;47.03;32.37;;;;;;;13.09;83.45;100824.66;5049029;28;20683;-56
2022/11/13 17:28:36;;;;;;;46.30;32.23;;;;;;;13.09;83.07;100819.47;5050426;28;20217;-56
2022/11/13 17:31:07;;;;;;;40.70;31.13;;;;;;;13.11;83.34;100829.84;5051826;28;20198;-56
2022/11/13 17:33:34;;;;;;;39.33;30.50;;;;;;;13.10;83.36;100826.41;5049954;28;20215;-56
2022/11/13 17:36:02;;;;;;;44.17;30.17;;;;;;;13.08;83.35;100822.88;5052141;28;20267;-56
2022/11/13 17:38:29;;;;;;;43.42;36.35;;;;;;;13.07;83.55;100818.56;5048236;28;20445;-56
2022/11/13 17:40:56;;;;;;;43.60;32.53;;;;;;;13.13;83.26;100826.47;5051863;28;20216;-57
2022/11/13 17:43:23;;;;;;;44.10;33.40;;;;;;;13.10;82.98;100823.81;5051888;28;20192;-56
2022/11/13 17:45:50;;;;;;;51.30;33.63;;;;;;;13.07;82.99;100823.75;5049515;28;20199;-56
2022/11/13 17:48:19;;;;;;;46.23;33.13;;;;;;;13.01;82.97;100826.09;5052119;28;20614;-56
2022/11/13 17:50:55;;;;;;;48.63;34.93;;;;;;;12.93;83.20;100820.75;5051851;28;20271;-56
2022/11/13 17:53:22;;;;;;;51.67;35.37;;;;;;;12.84;83.74;100811.84;5048711;28;20189;-57
2022/11/13 17:55:53;;;;;;;54.23;38.47;;;;;;;12.78;83.90;100816.84;5048595;28;20208;-55
2022/11/13 17:58:20;;;;;;;51.23;36.90;;;;;;;12.62;83.88;100810.38;5072079;28;20259;-55
2022/11/13 18:00:46;;;;;;;54.42;38.90;;;;;;;12.52;84.47;100802.34;5053236;28;20451;-57
2022/11/13 18:03:13;;;;;;;47.97;34.60;;;;;;;12.48;84.25;100811.66;5044233;28;20184;-57
2022/11/13 18:05:41;;;;;;;41.30;31.10;;;;;;;12.43;84.36;100808.97;5033484;28;20606;-56
2022/11/13 18:08:10;;;;;;;40.73;32.00;;;;;;;12.42;84.27;100807.22;5032147;28;20679;-56
2022/11/13 18:10:38;;;;;;;42.17;32.90;;;;;;;12.40;84.15;100805.41;5043388;28;20200;-57
2022/11/13 18:13:05;;;;;;;43.37;33.50;;;;;;;12.41;83.66;100800.28;5052114;28;20188;-55
2022/11/13 18:15:35;;;;;;;43.70;32.53;;;;;;;12.29;83.24;100781.91;5050632;28;20551;-55
2022/11/13 18:18:01;;;;;;;40.57;31.07;;;;;;;12.42;83.55;100799.47;5055564;28;20314;-56
2022/11/13 18:20:29;;;;;;;43.97;32.40;;;;;;;12.35;83.17;100792.41;5044827;28;20230;-57
2022/11/13 18:22:57;;;;;;;47.03;32.67;;;;;;;12.39;83.54;100795.94;5059748;28;20265;-56
2022/11/13 18:25:24;;;;;;;45.67;33.87;;;;;;;12.35;83.79;100800.13;5042574;28;20196;-57
2022/11/13 18:27:51;;;;;;;45.23;34.90;;;;;;;12.27;84.18;100793.88;5041718;28;20682;-56
2022/11/13 18:30:18;;;;;;;47.50;32.93;;;;;;;12.26;83.91;100794.69;5071602;28;20215;-57
2022/11/13 18:32:45;;;;;;;47.43;34.43;;;;;;;12.19;84.18;100802.22;5071041;28;20193;-56
2022/11/13 18:35:12;;;;;;;49.60;35.50;;;;;;;12.13;84.52;100790.00;5071526;28;20194;-56
2022/11/13 18:37:39;;;;;;;45.93;35.73;;;;;;;12.10;84.89;100789.91;5071799;28;20187;-57
2022/11/13 18:40:09;;;;;;;44.97;32.45;;;;;;;12.12;84.83;100785.66;5071197;28;20445;-55
2022/11/13 18:42:36;;;;;;;50.10;34.00;;;;;;;12.09;84.20;100784.69;5071143;28;20191;-57
2022/11/13 18:45:03;;;;;;;46.97;33.70;;;;;;;12.13;84.40;100786.56;5058614;28;20209;-55
2022/11/13 18:47:30;;;;;;;42.53;32.07;;;;;;;12.04;84.77;100776.84;5050833;28;20196;-56
2022/11/13 18:49:58;;;;;;;41.73;31.33;;;;;;;12.05;84.91;100788.03;5053631;28;20754;-56
2022/11/13 18:52:24;;;;;;;43.27;32.33;;;;;;;12.06;84.56;100784.63;5070738;28;20234;-56
2022/11/13 18:54:51;;;;;;;42.43;31.83;;;;;;;12.05;84.89;100790.59;5069550;28;20196;-56
2022/11/13 18:57:19;;;;;;;43.37;32.83;;;;;;;12.02;84.99;100790.50;5070938;28;20191;-56
2022/11/13 18:59:46;;;;;;;46.83;32.23;;;;;;;12.01;84.63;100786.16;5071437;28;20198;-56
2022/11/13 19:02:13;;;;;;;44.97;33.50;;;;;;;11.99;84.65;100793.84;5052995;28;20200;-56
2022/11/13 19:04:40;;;;;;;53.47;33.73;;;;;;;11.94;85.20;100790.28;5046392;28;20200;-56
2022/11/13 19:07:07;;;;;;;45.53;34.63;;;;;;;11.92;85.22;100794.47;5031217;28;20195;-55
2022/11/13 19:09:34;;;;;;;50.50;34.07;;;;;;;11.88;85.13;100784.91;5031189;28;20221;-55
2022/11/13 19:12:01;;;;;;;45.80;33.27;;;;;;;11.88;85.03;100784.91;5031199;28;20242;-55
2022/11/13 19:14:29;;;;;;;43.80;33.13;;;;;;;11.85;85.24;100789.97;5031739;28;20201;-56
2022/11/13 19:16:56;;;;;;;43.60;34.50;;;;;;;11.84;85.79;100790.78;5030973;28;20185;-55
2022/11/13 19:19:23;;;;;;;47.70;34.07;;;;;;;11.84;85.63;100794.22;5043187;28;20200;-56
2022/11/13 19:21:51;;;;;;;46.67;34.63;;;;;;;11.84;86.38;100788.19;5064055;28;20660;-56
2022/11/13 19:24:17;;;;;;;52.83;34.87;;;;;;;11.84;85.97;100790.78;5060626;28;20200;-57
2022/11/13 19:26:45;;;;;;;46.87;34.43;;;;;;;11.77;86.05;100781.13;5050879;28;20273;-57
2022/11/13 19:29:12;;;;;;;45.07;34.30;;;;;;;11.84;86.30;100794.22;5047762;28;20220;-58
2022/11/13 19:31:42;;;;;;;52.90;42.35;;;;;;;11.87;86.36;100788.31;5031576;28;20520;-57
2022/11/13 19:34:10;;;;;;;52.43;36.67;;;;;;;11.92;86.18;100793.63;5030763;28;20193;-57
2022/11/13 19:36:37;;;;;;;55.40;39.47;;;;;;;11.89;86.26;100786.69;5035591;28;20218;-57
2022/11/13 19:39:04;;;;;;;54.40;38.73;;;;;;;11.81;86.66;100785.56;5050678;28;20192;-56
2022/11/13 19:41:31;;;;;;;60.03;42.67;;;;;;;11.76;86.89;100790.53;5050733;28;20204;-56
2022/11/13 19:43:59;;;;;;;56.63;39.83;;;;;;;11.77;86.73;100783.69;5050515;28;20219;-56
2022/11/13 19:46:26;;;;;;;57.67;36.77;;;;;;;11.77;86.76;100781.13;5053930;28;20397;-56
2022/11/13 19:48:55;;;;;;;54.90;36.90;;;;;;;11.72;86.36;100785.25;5034748;28;20196;-56
2022/11/13 19:51:24;;;;;;;53.30;37.30;;;;;;;11.67;86.86;100779.06;5034466;28;20192;-57
2022/11/13 19:53:53;;;;;;;55.27;38.93;;;;;;;11.63;87.10;100777.19;5048652;28;20188;-57
2022/11/13 19:56:21;;;;;;;53.83;36.23;;;;;;;11.50;87.44;100757.91;5054235;28;20204;-59
2022/11/13 19:58:50;;;;;;;50.10;37.57;;;;;;;11.56;87.41;100782.97;5050468;28;20281;-57
2022/11/13 20:01:19;;;;;;;57.70;46.20;;;;;;;11.57;87.97;100779.56;5051937;28;20478;-57
2022/11/13 20:03:45;;;;;;;54.33;39.40;;;;;;;11.55;88.44;100778.66;5052914;28;20188;-58
2022/11/13 20:06:16;;;;;;;51.63;38.00;;;;;;;11.40;88.30;100757.56;5053158;28;20192;-61
2022/11/13 20:08:43;;;;;;;52.77;38.00;;;;;;;11.47;88.33;100774.94;5053116;28;20204;-57
2022/11/13 20:11:13;;;;;;;48.23;35.73;;;;;;;11.44;88.82;100778.31;5049360;28;20212;-57
2022/11/13 20:13:40;;;;;;;53.10;36.77;;;;;;;11.37;88.91;100767.75;5050562;28;20200;-57
2022/11/13 20:16:09;;;;;;;47.20;33.70;;;;;;;11.31;89.03;100771.00;5049344;28;20188;-56
2022/11/13 20:18:36;;;;;;;47.93;34.50;;;;;;;11.24;89.21;100772.47;5049983;28;20199;-57
2022/11/13 20:21:03;;;;;;;46.30;33.60;;;;;;;11.15;89.75;100774.72;5062852;28;20577;-57
2022/11/13 20:23:32;;;;;;;44.03;34.53;;;;;;;11.06;89.82;100773.56;5048630;28;20579;-57
2022/11/13 20:26:00;;;;;;;45.70;31.23;;;;;;;11.01;89.97;100763.13;5050117;28;20793;-58
2022/11/13 20:28:28;;;;;;;43.63;31.67;;;;;;;10.95;90.13;100757.75;5052541;28;20184;-58
2022/11/13 20:31:02;;;;;;;41.80;31.10;;;;;;;10.91;90.41;100755.88;5052494;28;20690;-57
2022/11/13 20:33:31;;;;;;;44.57;31.43;;;;;;;10.86;90.67;100761.69;5052624;28;20191;-57
2022/11/13 20:35:58;;;;;;;46.47;33.47;;;;;;;10.84;90.82;100753.94;5050078;28;20184;-57
2022/11/13 20:38:25;;;;;;;51.10;34.23;;;;;;;10.82;91.28;100752.13;5052414;28;20184;-56
2022/11/13 20:40:53;;;;;;;48.80;33.90;;;;;;;10.79;91.53;100755.47;5049081;28;20200;-57
2022/11/13 20:43:20;;;;;;;48.60;34.90;;;;;;;10.76;91.59;100747.66;5052396;28;20625;-57
2022/11/13 20:45:47;;;;;;;44.83;32.77;;;;;;;10.68;92.35;100741.38;5049053;28;20203;-57
2022/11/13 20:48:13;;;;;;;44.00;33.13;;;;;;;10.18;92.44;100669.28;5052660;28;20197;-57
2022/11/13 20:50:40;;;;;;;44.73;33.47;;;;;;;10.63;92.76;100745.44;5054421;28;20231;-57
2022/11/13 20:53:07;;;;;;;50.90;36.30;;;;;;;10.63;92.80;100746.31;5053088;28;20194;-57
2022/11/13 20:55:34;;;;;;;51.93;38.23;;;;;;;10.60;92.75;100742.78;5053184;28;20189;-57
2022/11/13 20:58:02;;;;;;;53.60;35.47;;;;;;;10.59;92.94;100743.59;5053064;28;20575;-57
2022/11/13 21:00:29;;;;;;;48.37;36.47;;;;;;;10.57;92.64;100743.56;5053339;28;20267;-57
2022/11/13 21:02:56;;;;;;;47.37;35.10;;;;;;;10.55;92.73;100739.16;5048667;28;20189;-58
2022/11/13 21:05:23;;;;;;;50.47;34.83;;;;;;;10.56;92.78;100746.94;5053094;28;20196;-57
2022/11/13 21:07:50;;;;;;;48.40;33.00;;;;;;;10.52;93.07;100749.34;5051286;28;20188;-57
2022/11/13 21:10:16;;;;;;;46.57;33.90;;;;;;;10.43;93.07;100737.03;5051500;28;20212;-57
2022/11/13 21:12:43;;;;;;;42.80;32.07;;;;;;;10.36;93.40;100747.00;5050603;28;20211;-57
2022/11/13 21:15:13;;;;;;;43.20;32.20;;;;;;;10.37;93.44;100741.06;5046377;28;20203;-58
2022/11/13 21:17:40;;;;;;;51.80;34.67;;;;;;;10.31;93.65;100744.28;5051189;28;20235;-57
2022/11/13 21:20:09;;;;;;;45.70;33.37;;;;;;;10.26;93.80;100743.25;5049655;28;20621;-57
2022/11/13 21:22:35;;;;;;;48.63;34.57;;;;;;;10.26;93.64;100752.63;5045324;28;20188;-57
2022/11/13 21:25:05;;;;;;;49.03;33.63;;;;;;;10.20;93.74;100755.84;5051834;28;20191;-57
2022/11/13 21:27:32;;;;;;;48.23;33.57;;;;;;;10.16;93.50;100760.81;5050429;28;20200;-57
2022/11/13 21:29:59;;;;;;;43.57;31.70;;;;;;;10.21;93.48;100755.03;5054954;28;20212;-56
2022/11/13 21:32:27;;;;;;;50.57;33.93;;;;;;;10.12;93.41;100748.63;5068191;28;20287;-56
2022/11/13 21:34:57;;;;;;;47.03;33.43;;;;;;;10.06;93.32;100755.28;5053591;28;20603;-57
2022/11/13 21:37:25;;;;;;;48.67;34.33;;;;;;;10.09;93.69;100754.53;5053025;28;20219;-56
2022/11/13 21:39:51;;;;;;;53.70;35.83;;;;;;;10.08;93.42;100757.91;5052846;28;20195;-57
2022/11/13 21:42:18;;;;;;;46.07;34.47;;;;;;;10.01;93.05;100764.50;5053225;28;20215;-56
2022/11/13 21:44:45;;;;;;;48.43;36.73;;;;;;;9.95;93.34;100759.13;5052911;28;20184;-56
2022/11/13 21:47:12;;;;;;;52.43;35.40;;;;;;;9.80;93.74;100743.16;5052948;28;20204;-56
2022/11/13 21:49:40;;;;;;;46.03;33.57;;;;;;;9.63;94.01;100738.16;5052725;28;20222;-56
2022/11/13 21:52:07;;;;;;;44.73;33.57;;;;;;;9.84;93.82;100780.06;5063831;28;20302;-56
2022/11/13 21:54:34;;;;;;;46.67;34.20;;;;;;;9.86;93.60;100763.06;5072639;28;20195;-56
2022/11/13 21:57:01;;;;;;;48.07;33.27;;;;;;;9.72;93.62;100767.66;5067006;28;20203;-56
2022/11/13 21:59:27;;;;;;;42.33;31.97;;;;;;;9.66;93.43;100774.22;5070132;28;20701;-56
2022/11/13 22:01:54;;;;;;;47.10;37.90;;;;;;;9.68;94.00;100768.31;5071831;28;20444;-56
2022/11/13 22:04:21;;;;;;;44.57;32.87;;;;;;;9.73;93.47;100771.94;5072571;28;20218;-56
2022/11/13 22:06:51;;;;;;;41.20;31.47;;;;;;;9.69;93.16;100774.34;5073145;28;20294;-57
2022/11/13 22:09:19;;;;;;;41.93;29.83;;;;;;;9.60;92.65;100768.81;5072538;28;20581;-56
2022/11/13 22:11:46;;;;;;;42.22;33.28;;;;;;;9.56;92.54;100767.81;5072096;28;20457;-56
2022/11/13 22:14:13;;;;;;;40.67;30.03;;;;;;;9.53;92.61;100760.03;5072281;28;20191;-56
2022/11/13 22:16:46;;;;;;;38.33;28.57;;;;;;;9.33;92.52;100736.13;5072331;28;20183;-56
2022/11/13 22:19:15;;;;;;;37.87;28.87;;;;;;;9.43;92.39;100745.94;5073090;28;20205;-56
2022/11/13 22:21:42;;;;;;;43.47;29.10;;;;;;;9.42;92.58;100748.44;5072269;28;20191;-56
2022/11/13 22:24:12;;;;;;;40.57;31.27;;;;;;;9.43;92.58;100745.06;5072026;28;20661;-56
2022/11/13 22:26:40;;;;;;;44.40;30.00;;;;;;;9.36;92.76;100737.94;5068254;28;20196;-58
2022/11/13 22:29:06;;;;;;;41.40;28.93;;;;;;;9.27;93.12;100727.28;5051404;28;20191;-57
2022/11/13 22:31:35;;;;;;;38.60;28.77;;;;;;;9.27;92.79;100727.28;5064403;28;20269;-56
2022/11/13 22:34:02;;;;;;;41.93;30.23;;;;;;;9.20;93.18;100718.47;5072276;28;20213;-56
2022/11/13 22:36:31;;;;;;;40.63;29.37;;;;;;;9.24;93.34;100716.91;5072192;28;20187;-57
2022/11/13 22:38:58;;;;;;;41.67;29.03;;;;;;;9.22;93.55;100715.97;5072333;28;20190;-56
2022/11/13 22:41:29;;;;;;;41.83;28.97;;;;;;;9.26;93.82;100720.41;5071769;28;20190;-56
2022/11/13 22:43:59;;;;;;;43.00;30.37;;;;;;;9.24;93.55;100704.97;5071810;28;20550;-56
2022/11/13 22:46:28;;;;;;;40.67;29.47;;;;;;;9.22;93.81;100705.72;5071853;28;20257;-57
2022/11/13 22:48:56;;;;;;;40.03;29.40;;;;;;;9.20;93.54;100695.38;5071829;28;20190;-56
2022/11/13 22:51:25;;;;;;;38.30;29.27;;;;;;;9.21;93.26;100706.53;5071631;28;20223;-56
2022/11/13 22:53:55;;;;;;;42.17;34.58;;;;;;;9.29;93.35;100694.88;5063027;28;20943;-57
2022/11/13 22:56:24;;;;;;;43.60;31.47;;;;;;;9.10;93.28;100677.00;5071684;28;20203;-57
2022/11/13 22:58:53;;;;;;;42.17;29.33;;;;;;;9.24;92.79;100696.38;5072042;28;20219;-58
2022/11/13 23:01:21;;;;;;;40.00;27.80;;;;;;;9.24;92.41;100697.28;5071872;28;20621;-57
2022/11/13 23:03:50;;;;;;;38.70;27.70;;;;;;;9.21;92.02;100701.38;5071642;28;20194;-56
2022/11/13 23:06:19;;;;;;;40.37;29.73;;;;;;;9.18;92.48;100701.25;5072005;28;20198;-56
2022/11/13 23:08:46;;;;;;;40.37;27.70;;;;;;;8.85;92.89;100711.88;5071726;28;20193;-56
2022/11/13 23:11:15;;;;;;;35.27;26.57;;;;;;;8.77;93.70;100710.69;5071598;28;20590;-56
2022/11/13 23:13:43;;;;;;;36.30;27.53;;;;;;;8.64;94.17;100682.78;5072450;28;20187;-56
2022/11/13 23:16:12;;;;;;;37.20;27.27;;;;;;;8.80;93.96;100705.69;5071640;28;20729;-56
2022/11/13 23:18:40;;;;;;;36.53;27.00;;;;;;;8.74;94.07;100710.53;5071488;28;20198;-56
2022/11/13 23:21:08;;;;;;;38.13;27.23;;;;;;;8.67;94.06;100707.66;5074779;28;20553;-57
2022/11/13 23:23:36;;;;;;;36.83;27.20;;;;;;;8.68;94.16;100704.28;5075751;28;20190;-57
2022/11/13 23:26:03;;;;;;;40.00;28.37;;;;;;;8.61;94.29;100695.47;5076218;28;20186;-57
2022/11/13 23:28:30;;;;;;;38.40;28.50;;;;;;;8.61;94.32;100704.81;5075528;28;20186;-57
2022/11/13 23:30:57;;;;;;;42.63;27.90;;;;;;;8.57;94.66;100698.69;5075923;28;20219;-57
2022/11/13 23:33:25;;;;;;;39.90;31.25;;;;;;;8.59;94.65;100701.34;5074850;28;20449;-57
2022/11/13 23:35:52;;;;;;;37.87;28.93;;;;;;;8.55;94.63;100696.88;5075491;28;20191;-57
2022/11/13 23:38:19;;;;;;;37.33;27.07;;;;;;;8.54;94.45;100701.09;5075376;28;20191;-57
2022/11/13 23:40:46;;;;;;;42.00;28.17;;;;;;;8.56;94.60;100693.50;5073599;28;20205;-57
2022/11/13 23:43:13;;;;;;;37.37;26.20;;;;;;;8.53;93.97;100694.25;5056466;28;20206;-57
2022/11/13 23:45:40;;;;;;;36.30;26.30;;;;;;;8.54;94.04;100695.13;5054566;28;20662;-57
2022/11/13 23:48:07;;;;;;;34.83;25.43;;;;;;;8.52;93.61;100692.50;5048674;28;20199;-57
2022/11/13 23:50:36;;;;;;;33.53;25.30;;;;;;;8.54;93.36;100690.88;5052599;28;20223;-57
2022/11/13 23:53:03;;;;;;;35.87;25.80;;;;;;;8.59;93.22;100691.97;5052741;28;20207;-56
2022/11/13 23:55:30;;;;;;;34.13;25.07;;;;;;;8.59;93.07;100691.09;5047716;28;20189;-57
2022/11/13 23:57:58;;;;;;;35.70;24.70;;;;;;;8.62;92.64;100684.41;5054632;28;20223;-57
